Time;durP1;ratioP1;P1;durP2;ratioP2;P2;SDS_P1;SDS_P2;PMS_P1;PMS_P2;Temp;Humidity;BMP_temperature;BMP_pressure;BME280_temperature;BME280_humidity;BME280_pressure;Samples;Min_cycle;Max_cycle;Signal;HPM_P1;HPM_P2
2022/02/02 00:00:18;;;;;;;15.50;4.60;;;8.40;99.90;;;;;;5053559;28;20024;-46
2022/02/02 00:02:50;;;;;;;14.52;2.67;;;8.40;99.90;;;;;;5053767;28;20025;-46
2022/02/02 00:05:36;;;;;;;15.65;4.47;;;8.40;99.90;;;;;;5054201;28;20029;-46
2022/02/02 00:08:07;;;;;;;;;;;8.30;99.90;;;;;;5054341;28;20017;-46
2022/02/02 00:11:04;;;;;;;7.18;2.38;;;8.40;99.90;;;;;;5053752;28;19944;-47
2022/02/02 00:13:41;;;;;;;15.63;3.88;;;8.40;99.90;;;;;;5053218;28;20107;-45
2022/02/02 00:21:27;;;;;;;18.40;5.15;;;8.40;99.90;;;;;;5053737;28;20033;-46
2022/02/02 00:24:04;;;;;;;14.75;3.63;;;8.50;99.90;;;;;;5053217;28;20614;-46
2022/02/02 00:26:35;;;;;;;16.00;3.78;;;8.50;99.90;;;;;;5053530;28;20031;-48
2022/02/02 00:29:06;;;;;;;27.90;5.18;;;8.40;99.90;;;;;;5053510;28;20048;-50
2022/02/02 00:31:39;;;;;;;13.48;3.50;;;8.40;99.90;;;;;;5051412;28;20025;-49
2022/02/02 00:34:12;;;;;;;25.02;4.25;;;8.50;99.90;;;;;;5053085;28;20028;-46
2022/02/02 00:36:57;;;;;;;23.80;4.07;;;8.50;99.90;;;;;;5053614;28;20087;-44
2022/02/02 00:39:24;;;;;;;13.40;3.67;;;8.60;99.90;;;;;;5053317;28;20467;-46
2022/02/02 00:41:50;;;;;;;29.10;5.22;;;8.50;99.90;;;;;;5053177;28;20735;-47
2022/02/02 00:44:18;;;;;;;18.60;3.88;;;8.50;99.90;;;;;;5052764;28;20074;-45
2022/02/02 00:46:44;;;;;;;29.25;6.95;;;8.40;99.90;;;;;;5053033;28;20025;-44
2022/02/02 00:49:10;;;;;;;19.40;5.47;;;8.30;99.90;;;;;;5052874;28;20024;-47
2022/02/02 00:51:41;;;;;;;27.60;4.25;;;8.30;99.90;;;;;;5052949;28;20396;-48
2022/02/02 00:54:10;;;;;;;18.23;3.50;;;8.30;99.90;;;;;;5052638;28;20056;-46
2022/02/02 00:56:35;;;;;;;23.10;4.50;;;8.30;99.90;;;;;;5052904;28;20484;-46
2022/02/02 00:59:01;;;;;;;19.42;4.22;;;8.40;99.90;;;;;;5052748;28;20055;-48
2022/02/02 01:01:27;;;;;;;24.73;4.85;;;8.50;99.90;;;;;;5052276;28;20025;-44
2022/02/02 01:03:52;;;;;;;22.95;4.72;;;8.40;99.90;;;;;;5052460;28;20025;-48
2022/02/02 01:06:20;;;;;;;18.80;3.67;;;8.50;99.90;;;;;;5052741;28;20036;-47
2022/02/02 01:09:06;;;;;;;19.73;4.53;;;8.40;99.90;;;;;;5052644;28;20024;-45
2022/02/02 01:11:51;;;;;;;25.27;3.80;;;8.30;99.90;;;;;;5052471;28;20519;-47
2022/02/02 01:17:22;;;;;;;16.63;3.67;;;8.40;99.90;;;;;;5052631;28;20040;-44
2022/02/02 01:20:04;;;;;;;27.33;4.85;;;8.30;99.90;;;;;;5052312;28;20093;-46
2022/02/02 01:27:58;;;;;;;22.02;5.07;;;8.40;99.90;;;;;;5052373;28;20032;-47
2022/02/02 01:30:24;;;;;;;18.10;4.35;;;8.30;99.90;;;;;;5052246;28;20017;-47
2022/02/02 01:32:51;;;;;;;19.48;4.90;;;8.30;99.90;;;;;;5051975;28;20064;-42
2022/02/02 01:35:17;;;;;;;23.13;5.20;;;8.30;99.90;;;;;;5052143;28;20021;-44
2022/02/02 01:37:45;;;;;;;26.73;5.75;;;8.30;99.90;;;;;;5052315;28;20029;-46
2022/02/02 01:40:22;;;;;;;25.13;5.50;;;8.20;99.90;;;;;;5052033;28;20205;-45
2022/02/02 01:43:11;;;;;;;21.73;4.28;;;8.20;99.90;;;;;;5051831;28;20035;-45
2022/02/02 01:45:44;;;;;;;24.27;5.03;;;8.20;99.90;;;;;;5051769;28;20021;-45
2022/02/02 01:48:26;;;;;;;28.15;4.90;;;8.30;99.90;;;;;;5052088;28;20017;-46
2022/02/02 01:56:16;;;;;;;35.45;6.95;;;8.40;99.90;;;;;;5051946;28;20029;-47
2022/02/02 02:01:12;;;;;;;26.70;6.53;;;8.40;99.90;;;;;;5051169;28;20049;-47
2022/02/02 02:03:38;;;;;;;22.60;5.65;;;8.40;99.90;;;;;;5051327;28;20040;-47
2022/02/02 02:06:05;;;;;;;34.13;7.15;;;8.40;99.90;;;;;;5051449;28;20021;-50
2022/02/02 02:08:31;;;;;;;29.30;6.35;;;8.50;99.90;;;;;;5051554;28;20025;-45
2022/02/02 02:10:58;;;;;;;28.58;5.55;;;8.40;99.90;;;;;;5050504;28;20025;-47
2022/02/02 02:14:02;;;;;;;24.25;4.80;;;8.40;99.90;;;;;;5051388;28;20404;-46
2022/02/02 02:16:24;;;;;;;29.60;4.93;;;8.40;99.90;;;;;;5051154;28;20033;-46
2022/02/02 02:18:50;;;;;;;34.97;6.55;;;8.30;99.90;;;;;;5051493;28;20021;-45
2022/02/02 02:21:17;;;;;;;27.88;5.18;;;8.30;99.90;;;;;;5051533;28;20476;-48
2022/02/02 02:23:45;;;;;;;26.60;5.93;;;8.20;99.90;;;;;;5051187;28;20391;-45
2022/02/02 02:26:18;;;;;;;30.40;6.43;;;8.20;99.90;;;;;;5051307;28;20396;-47
2022/02/02 02:28:57;;;;;;;28.23;5.20;;;8.10;99.90;;;;;;5051403;28;20056;-45
2022/02/02 02:37:02;;;;;;;18.73;4.65;;;7.90;99.90;;;;;;5051222;28;20032;-47
2022/02/02 02:39:38;;;;;;;23.75;4.65;;;7.80;99.90;;;;;;5051038;28;20033;-44
2022/02/02 02:56:01;;;;;;;26.80;5.63;;;7.70;99.90;;;;;;5055668;28;20448;-45
2022/02/02 03:55:51;;;;;;;25.15;4.88;;;7.80;99.90;;;;;;5051388;28;20040;-46
2022/02/02 03:58:30;;;;;;;24.17;5.00;;;7.80;99.90;;;;;;5074121;28;20017;-47
2022/02/02 04:01:13;;;;;;;18.67;5.18;;;7.80;99.90;;;;;;5073829;28;20035;-47
2022/02/02 04:03:55;;;;;;;34.75;4.82;;;7.80;99.90;;;;;;5073747;28;20112;-44
2022/02/02 04:06:24;;;;;;;30.80;5.28;;;7.90;99.90;;;;;;5072936;28;20048;-42
2022/02/02 04:08:49;;;;;;;17.23;4.60;;;7.90;99.90;;;;;;5074131;28;20099;-44
2022/02/02 04:38:51;;;;;;;23.83;6.72;;;7.70;99.90;;;;;;5073608;28;20039;-42
2022/02/02 04:52:24;;;;;;;26.33;5.15;;;7.80;99.90;;;;;;5073049;28;20031;-48
2022/02/02 04:55:05;;;;;;;29.65;6.57;;;7.70;99.90;;;;;;5072857;28;20071;-44
2022/02/02 05:05:49;;;;;;;24.10;5.47;;;7.80;99.90;;;;;;5072710;28;20056;-44
2022/02/02 05:09:05;;;;;;;29.55;6.10;;;7.80;99.90;;;;;;5072721;28;20020;-44
2022/02/02 05:16:34;;;;;;;26.67;5.32;;;7.70;99.90;;;;;;5072678;28;20472;-42
2022/02/02 05:51:54;;;;;;;39.17;6.75;;;8.00;99.90;;;;;;5029887;28;20076;-48
2022/02/02 05:54:20;;;;;;;33.90;6.57;;;8.00;99.90;;;;;;5038065;28;20036;-46
2022/02/02 05:56:48;;;;;;;24.65;6.38;;;8.10;99.90;;;;;;5071822;28;20024;-41
2022/02/02 05:59:19;;;;;;;37.92;7.85;;;8.10;99.90;;;;;;5072057;28;20483;-49
2022/02/02 06:01:57;;;;;;;37.47;7.28;;;8.10;99.90;;;;;;5071939;28;20020;-46
2022/02/02 06:04:27;;;;;;;39.53;7.22;;;8.00;99.90;;;;;;5072099;28;20029;-46
2022/02/02 06:06:55;;;;;;;37.05;5.53;;;8.10;99.90;;;;;;5071551;28;20016;-45
2022/02/02 06:09:29;;;;;;;29.60;5.80;;;8.00;99.90;;;;;;5071671;28;20048;-46
2022/02/02 06:11:55;;;;;;;31.30;6.78;;;8.10;99.90;;;;;;5072351;28;20074;-46
2022/02/02 06:14:28;;;;;;;40.83;8.80;;;8.10;99.90;;;;;;5072004;28;20021;-46
2022/02/02 06:16:58;;;;;;;36.05;6.22;;;8.00;99.90;;;;;;5071453;28;20036;-47
2022/02/02 06:19:25;;;;;;;37.72;7.90;;;8.00;99.90;;;;;;5070269;28;20021;-49
2022/02/02 06:21:57;;;;;;;29.35;7.32;;;8.00;99.90;;;;;;5071492;28;20031;-49
2022/02/02 06:24:31;;;;;;;33.70;6.25;;;8.00;99.90;;;;;;5069855;28;20039;-41
2022/02/02 06:27:06;;;;;;;34.10;5.63;;;8.00;99.90;;;;;;5071332;28;20024;-49
2022/02/02 06:29:35;;;;;;;34.67;5.55;;;7.90;99.90;;;;;;5070676;28;20013;-50
2022/02/02 06:32:02;;;;;;;19.20;5.00;;;7.90;99.90;;;;;;5071341;28;20021;-48
2022/02/02 06:34:33;;;;;;;31.25;5.88;;;7.90;99.90;;;;;;5071098;28;20025;-48
2022/02/02 06:37:01;;;;;;;31.90;6.30;;;7.90;99.90;;;;;;5071105;28;20016;-41
2022/02/02 06:39:27;;;;;;;33.17;5.80;;;8.00;99.90;;;;;;5071278;28;20020;-46
2022/02/02 06:41:56;;;;;;;37.30;7.20;;;8.00;99.90;;;;;;5071283;28;20031;-45
2022/02/02 06:44:24;;;;;;;27.92;4.85;;;7.90;99.90;;;;;;5071022;28;20107;-47
2022/02/02 06:46:51;;;;;;;30.77;6.32;;;7.90;99.90;;;;;;5071343;28;20399;-42
2022/02/02 06:49:19;;;;;;;30.23;5.97;;;7.90;99.90;;;;;;5071106;28;20439;-43
2022/02/02 06:51:58;;;;;;;20.90;4.95;;;8.00;99.90;;;;;;5071236;28;20048;-50
2022/02/02 06:54:45;;;;;;;21.73;4.60;;;8.00;99.90;;;;;;5071132;28;20024;-46
2022/02/02 06:57:22;;;;;;;28.67;5.78;;;8.10;99.90;;;;;;5071308;28;20427;-44
2022/02/02 07:02:43;;;;;;;21.60;5.63;;;8.10;99.90;;;;;;5071072;28;20029;-46
2022/02/02 07:05:35;;;;;;;28.00;7.25;;;8.10;99.90;;;;;;5071517;28;20021;-52
2022/02/02 07:13:39;;;;;;;21.67;4.28;;;8.10;99.90;;;;;;5071515;28;20033;-46
2022/02/02 07:24:03;;;;;;;26.38;6.07;;;8.20;99.90;;;;;;5071693;28;19908;-49
2022/02/02 07:32:18;;;;;;;28.85;5.38;;;8.30;99.90;;;;;;5071514;28;20025;-44
2022/02/02 07:35:04;;;;;;;30.48;5.90;;;8.20;99.90;;;;;;5069031;28;20060;-41
2022/02/02 07:37:36;;;;;;;25.23;5.68;;;8.30;99.90;;;;;;5070315;28;20055;-43
2022/02/02 07:40:05;;;;;;;17.02;4.30;;;8.30;99.90;;;;;;5073189;28;20475;-45
2022/02/02 07:42:32;;;;;;;15.85;3.63;;;8.30;99.90;;;;;;5075170;28;20503;-46
2022/02/02 07:45:08;;;;;;;36.63;7.47;;;8.20;99.90;;;;;;5074395;28;20436;-43
2022/02/02 07:47:38;;;;;;;20.13;4.47;;;8.30;99.90;;;;;;5073742;28;20028;-42
2022/02/02 07:50:05;;;;;;;23.73;5.15;;;8.30;99.90;;;;;;5074033;28;20008;-44
2022/02/02 07:52:32;;;;;;;23.33;4.47;;;8.30;99.90;;;;;;5074182;28;20073;-45
2022/02/02 07:55:01;;;;;;;23.70;5.22;;;8.30;99.90;;;;;;5074112;28;20009;-44
2022/02/02 07:57:28;;;;;;;27.75;5.90;;;8.30;99.90;;;;;;5074671;28;20021;-45
2022/02/02 07:59:59;;;;;;;28.42;6.35;;;8.30;99.90;;;;;;5074517;28;20033;-45
2022/02/02 08:04:59;;;;;;;18.05;5.07;;;8.40;99.90;;;;;;5073335;28;20037;-44
2022/02/02 08:07:31;;;;;;;29.67;5.53;;;8.40;99.90;;;;;;5073745;28;20146;-44
2022/02/02 08:10:11;;;;;;;18.23;3.58;;;8.40;99.90;;;;;;5074368;28;20017;-44
2022/02/02 08:12:54;;;;;;;22.25;4.45;;;8.40;99.90;;;;;;5073856;28;20028;-48
2022/02/02 08:15:22;;;;;;;27.48;4.75;;;8.50;99.90;;;;;;5070696;28;20032;-43
2022/02/02 08:17:50;;;;;;;23.05;4.72;;;8.50;99.90;;;;;;5075072;28;20488;-42
2022/02/02 08:20:16;;;;;;;22.17;5.32;;;8.60;99.90;;;;;;5074576;28;20046;-43
2022/02/02 08:22:41;;;;;;;23.48;4.20;;;8.70;99.90;;;;;;5074482;28;20032;-42
2022/02/02 08:25:09;;;;;;;26.23;5.20;;;8.70;99.90;;;;;;5073261;28;20020;-47
2022/02/02 08:27:41;;;;;;;31.08;4.88;;;8.70;99.90;;;;;;5074143;28;20545;-47
2022/02/02 08:30:10;;;;;;;19.17;5.18;;;8.80;99.90;;;;;;5074174;28;20036;-40
2022/02/02 08:32:47;;;;;;;29.85;5.85;;;8.80;99.90;;;;;;5074277;28;20020;-42
2022/02/02 08:35:14;;;;;;;32.45;6.03;;;8.80;99.90;;;;;;5074078;28;20021;-46
2022/02/02 08:37:44;;;;;;;24.13;5.07;;;8.90;99.90;;;;;;5075757;28;20017;-46
2022/02/02 08:40:27;;;;;;;28.10;5.75;;;8.90;99.90;;;;;;5075826;28;20076;-49
2022/02/02 08:42:55;;;;;;;33.25;5.28;;;8.90;99.90;;;;;;5071372;28;20020;-52
2022/02/02 08:45:25;;;;;;;30.38;6.22;;;8.90;99.90;;;;;;5074257;28;20426;-44
2022/02/02 08:47:58;;;;;;;26.42;5.32;;;8.90;99.90;;;;;;5073895;28;20016;-46
2022/02/02 08:50:41;;;;;;;26.13;5.43;;;8.80;99.90;;;;;;5054754;28;20025;-45
2022/02/02 08:53:30;;;;;;;24.50;5.15;;;8.80;99.90;;;;;;5054302;28;20519;-42
2022/02/02 09:01:06;;;;;;;20.00;5.65;;;8.90;99.90;;;;;;5053874;28;20440;-47
2022/02/02 09:06:17;;;;;;;35.08;6.50;;;8.90;99.90;;;;;;5053955;28;20131;-45
2022/02/02 09:08:46;;;;;;;36.30;6.60;;;8.80;99.90;;;;;;5053902;28;20055;-48
2022/02/02 09:25:14;;;;;;;21.83;4.40;;;8.60;99.90;;;;;;5052808;28;20032;-45
2022/02/02 09:35:42;;;;;;;17.38;4.38;;;8.50;99.90;;;;;;5052456;28;20025;-49
2022/02/02 09:38:08;;;;;;;28.50;6.03;;;8.60;99.90;;;;;;5052012;28;20051;-45
2022/02/02 09:43:20;;;;;;;12.68;3.50;;;8.80;99.90;;;;;;5052168;28;20025;-48
2022/02/02 09:45:51;;;;;;;18.15;4.28;;;8.90;99.90;;;;;;5052323;28;20096;-45
2022/02/02 09:48:54;;;;;;;18.90;4.13;;;8.80;99.90;;;;;;5050829;28;20568;-46
2022/02/02 09:51:12;;;;;;;18.02;5.20;;;8.80;99.90;;;;;;5048701;28;20033;-49
2022/02/02 09:53:51;;;;;;;19.73;5.00;;;8.90;99.90;;;;;;5051573;28;20431;-46
2022/02/02 09:59:16;;;;;;;16.00;3.95;;;9.60;99.90;;;;;;5051833;28;20423;-44
2022/02/02 10:02:17;;;;;;;14.48;3.95;;;10.50;99.90;;;;;;5051517;28;20029;-44
2022/02/02 10:05:28;;;;;;;17.13;3.33;;;11.70;99.90;;;;;;5051132;28;20021;-47
2022/02/02 10:10:49;;;;;;;15.98;4.43;;;13.70;97.40;;;;;;5051567;28;20126;-46
2022/02/02 10:15:59;;;;;;;13.13;3.47;;;14.60;95.00;;;;;;5051843;28;20047;-48
2022/02/02 10:18:33;;;;;;;13.82;3.63;;;14.80;94.00;;;;;;5050788;28;20029;-47
2022/02/02 10:21:00;;;;;;;16.07;7.97;;;15.00;93.20;;;;;;5046189;28;20040;-46
2022/02/02 10:23:28;;;;;;;14.55;5.35;;;14.50;92.40;;;;;;5050352;28;20503;-46
2022/02/02 10:25:57;;;;;;;10.48;3.22;;;13.70;93.60;;;;;;5050391;28;20513;-50
2022/02/02 10:28:27;;;;;;;21.40;3.63;;;13.90;93.60;;;;;;5050391;28;20025;-51
2022/02/02 10:30:59;;;;;;;13.88;4.45;;;14.00;93.10;;;;;;5041243;28;20442;-49
2022/02/02 10:33:27;;;;;;;16.02;3.40;;;14.10;93.30;;;;;;5039292;28;20033;-52
2022/02/02 10:36:20;;;;;;;12.40;3.50;;;13.70;93.60;;;;;;5031833;28;20389;-52
2022/02/02 10:39:09;;;;;;;19.88;4.70;;;13.20;94.90;;;;;;5032329;28;20033;-51
2022/02/02 10:41:44;;;;;;;18.20;4.68;;;13.20;95.20;;;;;;5049426;28;20110;-50
2022/02/02 10:44:31;;;;;;;10.55;2.85;;;13.00;95.90;;;;;;5050764;28;20032;-49
2022/02/02 10:47:17;;;;;;;12.98;4.07;;;12.50;95.60;;;;;;5037084;28;20025;-48
2022/02/02 10:52:35;;;;;;;15.32;3.13;;;11.50;98.40;;;;;;5050737;28;19912;-47
2022/02/02 10:55:55;;;;;;;23.73;4.82;;;11.60;98.30;;;;;;5044499;28;20025;-50
2022/02/02 11:01:19;;;;;;;12.32;3.78;;;11.50;98.60;;;;;;5031483;28;20022;-49
2022/02/02 11:06:39;;;;;;;10.70;2.70;;;11.60;97.30;;;;;;5031921;28;20568;-47
2022/02/02 11:09:06;;;;;;;6.95;2.85;;;11.40;97.70;;;;;;5031219;28;20109;-52
2022/02/02 11:11:32;;;;;;;12.30;4.78;;;11.20;97.90;;;;;;5039944;28;20388;-49
2022/02/02 11:14:05;;;;;;;17.48;4.85;;;11.10;98.40;;;;;;5051586;28;20111;-48
2022/02/02 11:16:34;;;;;;;14.57;3.22;;;10.90;98.50;;;;;;5040591;28;20103;-53
2022/02/02 11:19:01;;;;;;;12.55;3.05;;;10.80;99.00;;;;;;5054116;28;20032;-53
2022/02/02 11:21:32;;;;;;;20.98;3.33;;;10.80;99.30;;;;;;5051256;28;20052;-51
2022/02/02 11:23:59;;;;;;;23.73;4.05;;;10.90;99.20;;;;;;5051840;28;20087;-51
2022/02/02 11:26:47;;;;;;;12.55;3.78;;;10.90;98.70;;;;;;5048806;28;20017;-54
2022/02/02 11:29:39;;;;;;;15.52;3.65;;;10.90;98.10;;;;;;5042865;28;20091;-50
2022/02/02 11:32:08;;;;;;;19.77;3.40;;;10.80;98.50;;;;;;5052217;28;20021;-49
2022/02/02 11:34:34;;;;;;;23.05;5.72;;;10.80;99.00;;;;;;5052180;28;20037;-49
2022/02/02 11:37:04;;;;;;;21.10;3.38;;;10.60;98.70;;;;;;5050639;28;20395;-53
2022/02/02 11:39:57;;;;;;;9.55;3.08;;;10.50;99.20;;;;;;5052006;28;20018;-51
2022/02/02 11:42:47;;;;;;;11.85;2.90;;;10.40;99.90;;;;;;5045159;28;20558;-49
2022/02/02 11:45:50;;;;;;;13.05;2.88;;;10.40;99.90;;;;;;5034079;28;20026;-49
2022/02/02 11:48:55;;;;;;;13.43;3.28;;;10.40;99.90;;;;;;5034075;28;20021;-47
2022/02/02 11:51:36;;;;;;;15.55;3.38;;;10.30;99.90;;;;;;4973022;28;20027;-49
2022/02/02 11:54:03;;;;;;;16.08;3.13;;;10.30;99.90;;;;;;5025910;28;20044;-47
2022/02/02 11:56:30;;;;;;;15.13;3.22;;;10.30;99.90;;;;;;5033825;28;20108;-47
2022/02/02 11:58:56;;;;;;;14.65;3.30;;;10.30;99.90;;;;;;5044384;28;20029;-53
2022/02/02 12:01:43;;;;;;;17.02;3.53;;;10.40;99.90;;;;;;5052814;28;20044;-50
2022/02/02 12:04:36;;;;;;;14.57;2.78;;;10.50;99.90;;;;;;5051991;28;20435;-50
2022/02/02 12:07:06;;;;;;;13.05;3.05;;;10.40;99.90;;;;;;5032825;28;20449;-48
2022/02/02 12:09:54;;;;;;;12.00;3.28;;;10.40;99.90;;;;;;5033683;28;20025;-51
2022/02/02 12:48:44;;;;;;;19.73;3.92;;;10.40;99.90;;;;;;5051960;28;20051;-52
2022/02/02 12:54:35;;;;;;;21.80;4.15;;;10.30;99.90;;;;;;5045552;28;20036;-45
2022/02/02 12:56:57;;;;;;;15.50;3.78;;;10.30;99.90;;;;;;5032740;28;20441;-45
2022/02/02 13:02:07;;;;;;;14.43;4.15;;;10.10;99.90;;;;;;5048883;28;20033;-45
2022/02/02 13:04:33;;;;;;;16.60;3.45;;;10.00;99.90;;;;;;5032528;28;20026;-44
2022/02/02 13:07:18;;;;;;;16.13;4.07;;;10.00;99.90;;;;;;5040938;28;20024;-44
2022/02/02 13:09:47;;;;;;;15.32;3.50;;;10.00;99.90;;;;;;5052762;28;20510;-45
2022/02/02 13:12:17;;;;;;;17.20;4.90;;;10.00;99.90;;;;;;5052606;28;20420;-45
2022/02/02 13:15:02;;;;;;;17.80;4.72;;;10.10;99.90;;;;;;5046201;28;20052;-46
2022/02/02 13:17:28;;;;;;;19.98;4.07;;;10.00;99.90;;;;;;5032632;28;20068;-44
2022/02/02 13:19:58;;;;;;;20.40;4.53;;;10.00;99.90;;;;;;5032095;28;20044;-45
2022/02/02 13:22:28;;;;;;;33.30;5.75;;;10.10;99.90;;;;;;5025768;28;20052;-46
2022/02/02 13:24:54;;;;;;;21.83;4.55;;;10.10;99.90;;;;;;5050298;28;20085;-43
2022/02/02 13:27:21;;;;;;;21.63;4.53;;;10.10;99.90;;;;;;5052607;28;20021;-46
2022/02/02 13:29:51;;;;;;;17.45;4.43;;;10.10;99.90;;;;;;5051743;28;20021;-44
2022/02/02 13:32:26;;;;;;;35.30;7.15;;;10.00;99.90;;;;;;5052493;28;20021;-45
2022/02/02 13:42:48;;;;;;;23.77;5.13;;;9.80;99.90;;;;;;5047769;28;20041;-47
2022/02/02 14:01:41;;;;;;;28.73;5.05;;;8.90;99.90;;;;;;5031969;28;20033;-47
2022/02/02 14:04:46;;;;;;;25.50;6.50;;;8.80;99.90;;;;;;5031439;28;20030;-48
2022/02/02 14:07:44;;;;;;;59.25;10.80;;;8.70;99.90;;;;;;5032171;28;20455;-48
2022/02/02 14:10:31;;;;;;;41.40;7.85;;;8.70;99.90;;;;;;5031925;28;20014;-51
2022/02/02 14:32:18;;;;;;;15.07;4.57;;;9.20;99.90;;;;;;5031416;28;20109;-47
2022/02/02 14:34:44;;;;;;;8.48;3.20;;;9.20;99.90;;;;;;5029899;28;20116;-47
2022/02/02 14:37:15;;;;;;;13.27;4.93;;;9.20;99.90;;;;;;5031428;28;20457;-52
2022/02/02 14:40:22;;;;;;;13.60;4.13;;;9.10;99.90;;;;;;5030136;28;20025;-49
2022/02/02 14:42:36;;;;;;;10.90;3.65;;;9.00;99.90;;;;;;5030067;28;20087;-49
2022/02/02 14:45:09;;;;;;;13.20;4.25;;;9.00;99.90;;;;;;5031217;28;20394;-49
2022/02/02 14:47:38;;;;;;;16.13;5.00;;;9.00;99.90;;;;;;5031212;28;20018;-47
2022/02/02 14:50:50;;;;;;;21.02;5.03;;;8.90;99.90;;;;;;5033414;28;20048;-49
2022/02/02 14:53:11;;;;;;;13.38;3.95;;;9.00;99.90;;;;;;5033599;28;20088;-49
2022/02/02 14:56:07;;;;;;;16.55;4.63;;;9.10;99.90;;;;;;5035398;28;20033;-48
2022/02/02 15:26:10;;;;;;;17.67;4.82;;;8.70;99.90;;;;;;5035166;28;20044;-49
2022/02/02 15:28:17;;;;;;;11.80;4.35;;;8.70;99.90;;;;;;5034672;28;20033;-47
2022/02/02 15:30:55;;;;;;;12.38;3.63;;;8.70;99.90;;;;;;5033600;28;20029;-47
2022/02/02 15:33:27;;;;;;;23.08;6.00;;;8.70;99.90;;;;;;5034258;28;20021;-45
2022/02/02 15:38:38;;;;;;;14.32;4.47;;;8.70;99.90;;;;;;5034738;28;20041;-50
2022/02/02 15:41:10;;;;;;;13.65;4.55;;;8.80;99.90;;;;;;5034473;28;20032;-46
2022/02/02 15:43:47;;;;;;;14.57;4.38;;;8.80;99.90;;;;;;5034113;28;20119;-47
2022/02/02 15:54:54;;;;;;;20.40;6.85;;;8.80;99.90;;;;;;5033953;28;20519;-47
2022/02/02 15:58:07;;;;;;;16.73;5.47;;;8.80;99.90;;;;;;5034276;28;20043;-47
2022/02/02 16:05:34;;;;;;;24.85;6.43;;;8.60;99.90;;;;;;5034256;28;20025;-47
2022/02/02 16:08:05;;;;;;;14.32;4.22;;;8.60;99.90;;;;;;5034178;28;20022;-50
2022/02/02 16:10:43;;;;;;;24.50;5.35;;;8.50;99.90;;;;;;5034075;28;20441;-47
2022/02/02 16:13:25;;;;;;;11.32;3.88;;;8.40;99.90;;;;;;5033705;28;20033;-51
2022/02/02 16:15:55;;;;;;;16.00;4.00;;;8.40;99.90;;;;;;5033945;28;20528;-46
2022/02/02 16:18:35;;;;;;;18.15;5.28;;;8.40;99.90;;;;;;5033687;28;20120;-48
2022/02/02 16:37:15;;;;;;;22.13;5.60;;;8.20;99.90;;;;;;5052887;28;20037;-46
2022/02/02 16:39:53;;;;;;;18.85;6.13;;;8.20;99.90;;;;;;5053312;28;20021;-46
2022/02/02 16:45:04;;;;;;;19.80;5.38;;;8.20;99.90;;;;;;5052550;28;20028;-48
2022/02/02 16:47:30;;;;;;;17.48;5.18;;;8.20;99.90;;;;;;5053007;28;20439;-46
2022/02/02 16:49:55;;;;;;;19.35;5.07;;;8.30;99.90;;;;;;5052713;28;20028;-49
2022/02/02 16:52:24;;;;;;;13.88;4.40;;;8.20;99.90;;;;;;5051970;28;20031;-46
2022/02/02 16:54:50;;;;;;;18.05;4.30;;;8.10;99.90;;;;;;5031926;28;20396;-47
2022/02/02 17:32:39;;;;;;;23.95;5.55;;;8.00;99.90;;;;;;5032302;28;20021;-47
2022/02/02 17:35:33;;;;;;;19.40;6.43;;;7.90;99.90;;;;;;5030660;28;20540;-47
2022/02/02 17:41:00;;;;;;;20.70;5.55;;;8.00;99.90;;;;;;5050069;28;19904;-52
2022/02/02 18:03:17;;;;;;;20.67;5.15;;;8.10;99.90;;;;;;5032113;28;20377;-45
2022/02/02 18:14:38;;;;;;;14.20;5.50;;;7.90;99.90;;;;;;5031345;28;20091;-45
2022/02/02 18:19:09;;;;;;;15.98;4.50;;;7.70;99.90;;;;;;5046831;28;20112;-49
2022/02/02 18:21:35;;;;;;;13.68;5.13;;;7.60;99.90;;;;;;5047687;28;20028;-49
2022/02/02 18:29:17;;;;;;;26.67;5.95;;;7.60;99.90;;;;;;5045685;28;20555;-47
2022/02/02 18:34:25;;;;;;;20.40;5.68;;;7.60;99.90;;;;;;5040830;28;20068;-46
2022/02/02 18:47:37;;;;;;;12.82;5.70;;;7.30;99.90;;;;;;5031404;28;20021;-48
2022/02/02 18:50:18;;;;;;;22.98;8.10;;;7.10;99.90;;;;;;5037339;28;20078;-48
2022/02/02 18:58:15;;;;;;;21.92;6.13;;;6.80;99.90;;;;;;5051002;28;20488;-55
2022/02/02 19:06:40;;;;;;;18.67;8.18;;;6.60;99.90;;;;;;5042949;28;20026;-49
2022/02/02 19:31:29;;;;;;;66.80;31.85;;;6.60;99.90;;;;;;5044385;28;20087;-50
2022/02/02 19:55:44;;;;;;;25.40;7.28;;;7.00;99.90;;;;;;5054905;28;20029;-48
2022/02/02 20:04:07;;;;;;;26.33;9.15;;;7.30;99.90;;;;;;5037620;28;20037;-48
2022/02/02 20:06:41;;;;;;;27.67;6.85;;;7.30;99.90;;;;;;5054223;28;20025;-46
2022/02/02 20:09:26;;;;;;;25.50;7.00;;;7.30;99.90;;;;;;5054082;28;20091;-49
2022/02/02 20:11:52;;;;;;;26.02;7.22;;;7.40;99.90;;;;;;5053673;28;20017;-48
2022/02/02 20:14:17;;;;;;;22.25;8.18;;;7.40;99.90;;;;;;5054196;28;20028;-48
2022/02/02 20:16:43;;;;;;;27.00;8.00;;;7.40;99.90;;;;;;5054327;28;20051;-49
2022/02/02 20:19:11;;;;;;;18.73;6.85;;;7.40;99.90;;;;;;5053494;28;20488;-49
2022/02/02 20:21:46;;;;;;;22.65;8.02;;;7.60;99.90;;;;;;5054160;28;20074;-47
2022/02/02 20:24:12;;;;;;;27.30;9.45;;;7.50;99.90;;;;;;5053965;28;20111;-47
2022/02/02 20:26:37;;;;;;;19.85;8.57;;;7.50;99.90;;;;;;5043663;28;20901;-51
2022/02/02 20:29:04;;;;;;;20.52;9.23;;;7.60;99.90;;;;;;5050792;28;20365;-48
2022/02/02 20:31:32;;;;;;;22.40;8.93;;;7.60;99.90;;;;;;5053092;28;20094;-47
2022/02/02 20:33:58;;;;;;;25.05;8.48;;;7.60;99.90;;;;;;5043969;28;20393;-53
2022/02/02 20:36:24;;;;;;;21.83;7.80;;;7.60;99.90;;;;;;5045912;28;20034;-49
2022/02/02 20:38:49;;;;;;;16.83;9.25;;;7.60;99.90;;;;;;5044059;28;20447;-53
2022/02/02 20:41:15;;;;;;;25.42;8.35;;;7.60;99.90;;;;;;5041243;28;20055;-49
2022/02/02 21:05:21;;;;;;;24.42;10.40;;;7.70;99.90;;;;;;5051450;28;20037;-50
2022/02/02 21:10:25;;;;;;;23.85;10.65;;;7.70;99.90;;;;;;5049720;28;20022;-47
2022/02/02 21:15:37;;;;;;;93.50;43.05;;;7.70;99.90;;;;;;5052414;28;20040;-47
2022/02/02 21:18:13;;;;;;;50.90;26.63;;;7.60;99.90;;;;;;5050508;28;20500;-50
2022/02/02 21:23:42;;;;;;;32.47;10.23;;;7.50;99.90;;;;;;5032308;28;20040;-50
2022/02/02 21:26:32;;;;;;;22.88;8.45;;;7.40;99.90;;;;;;5035768;28;20033;-48
2022/02/02 21:28:58;;;;;;;16.80;7.47;;;7.40;99.90;;;;;;5036477;28;20082;-48
2022/02/02 21:31:23;;;;;;;23.48;7.90;;;7.40;99.90;;;;;;5043893;28;20029;-47
2022/02/02 21:33:50;;;;;;;20.70;7.72;;;7.40;99.90;;;;;;5030447;28;20021;-48
2022/02/02 21:36:17;;;;;;;23.92;8.50;;;7.30;99.90;;;;;;5047142;28;20082;-48
2022/02/02 21:38:55;;;;;;;27.70;8.10;;;7.40;99.90;;;;;;5052392;28;20404;-48
2022/02/02 21:41:28;;;;;;;24.95;8.20;;;7.50;99.90;;;;;;5051264;28;20036;-50
2022/02/02 21:43:54;;;;;;;19.77;7.13;;;7.40;99.90;;;;;;5051708;28;20036;-49
2022/02/02 21:46:22;;;;;;;21.42;8.18;;;7.50;99.90;;;;;;5051967;28;20025;-53
2022/02/02 21:48:48;;;;;;;18.17;8.05;;;7.50;99.90;;;;;;5033236;28;20021;-46
2022/02/02 21:51:23;;;;;;;17.02;6.75;;;7.40;99.90;;;;;;5031425;28;20028;-48
2022/02/02 21:53:49;;;;;;;18.83;8.00;;;7.30;99.90;;;;;;5031688;28;20484;-53
2022/02/02 21:56:14;;;;;;;23.75;7.70;;;7.30;99.90;;;;;;5030972;28;20029;-49
2022/02/02 21:58:40;;;;;;;21.63;7.57;;;7.20;99.90;;;;;;5031566;28;20033;-52
2022/02/02 22:01:06;;;;;;;24.08;8.15;;;7.30;99.90;;;;;;5029715;28;20030;-51
2022/02/02 22:03:31;;;;;;;22.10;8.20;;;7.30;99.90;;;;;;5030779;28;20037;-50
2022/02/02 22:05:57;;;;;;;22.75;9.65;;;7.30;99.90;;;;;;5031618;28;20048;-48
2022/02/02 22:08:22;;;;;;;17.35;6.43;;;7.30;99.90;;;;;;5031740;28;20033;-48
2022/02/02 22:10:48;;;;;;;14.85;6.47;;;7.30;99.90;;;;;;5030702;28;20443;-46
2022/02/02 22:13:15;;;;;;;16.92;7.22;;;7.40;99.90;;;;;;5030681;28;20025;-48
2022/02/02 22:15:49;;;;;;;16.70;8.30;;;7.40;99.90;;;;;;5051555;28;20025;-48
2022/02/02 22:18:17;;;;;;;19.92;8.15;;;7.40;99.90;;;;;;5050447;28;20029;-48
2022/02/02 22:20:44;;;;;;;21.25;9.68;;;7.30;99.90;;;;;;5048237;28;20028;-50
2022/02/02 22:23:09;;;;;;;15.95;8.05;;;7.40;99.90;;;;;;5050708;28;20104;-53
2022/02/02 22:25:35;;;;;;;23.30;9.88;;;7.30;99.90;;;;;;5046345;28;20097;-45
2022/02/02 22:28:00;;;;;;;23.35;8.90;;;7.40;99.90;;;;;;5044787;28;20120;-54
2022/02/02 22:30:26;;;;;;;23.52;10.25;;;7.30;99.90;;;;;;5050525;28;20033;-48
2022/02/02 22:32:51;;;;;;;19.85;9.13;;;7.40;99.90;;;;;;5032540;28;20104;-44
2022/02/02 22:35:17;;;;;;;16.67;7.88;;;7.30;99.90;;;;;;5035898;28;20039;-43
2022/02/02 22:37:42;;;;;;;18.80;8.23;;;7.30;99.90;;;;;;5050859;28;20039;-47
2022/02/02 22:40:09;;;;;;;24.35;10.45;;;7.30;99.90;;;;;;5048506;28;20033;-44
2022/02/02 22:42:35;;;;;;;18.92;9.38;;;7.30;99.90;;;;;;5050263;28;20062;-44
2022/02/02 22:45:04;;;;;;;22.75;8.57;;;7.30;99.90;;;;;;5048701;28;20204;-43
2022/02/02 22:47:30;;;;;;;19.23;9.00;;;7.30;99.90;;;;;;5049344;28;20791;-45
2022/02/02 22:49:57;;;;;;;17.73;9.38;;;7.30;99.90;;;;;;5046315;28;20052;-53
2022/02/02 22:52:23;;;;;;;17.65;9.50;;;7.30;99.90;;;;;;5049916;28;20118;-51
2022/02/02 22:54:49;;;;;;;18.58;9.52;;;7.20;99.90;;;;;;5048835;28;20500;-51
2022/02/02 22:57:14;;;;;;;19.75;8.70;;;7.20;99.90;;;;;;5050697;28;20029;-52